Time;durP1;ratioP1;P1;durP2;ratioP2;P2;SDS_P1;SDS_P2;PMS_P1;PMS_P2;Temp;Humidity;BMP_temperature;BMP_pressure;BME280_temperature;BME280_humidity;BME280_pressure;Samples;Min_cycle;Max_cycle;Signal;HPM_P1;HPM_P2
2021/03/25 00:01:27;;;;;;;23.65;14.50;;;;;;;;;;5100215;28;20466;-74
2021/03/25 00:03:54;;;;;;;26.75;14.88;;;;;;;;;;5099239;28;20032;-74
2021/03/25 00:06:21;;;;;;;30.33;15.38;;;;;;;;;;5099585;28;20028;-74
2021/03/25 00:08:46;;;;;;;36.42;19.05;;;;;;;;;;5099391;28;20429;-74
2021/03/25 00:11:12;;;;;;;34.08;18.00;;;;;;;;;;5099615;28;20039;-74
2021/03/25 00:13:37;;;;;;;36.95;17.73;;;;;;;;;;5082135;28;20040;-74
2021/03/25 00:16:04;;;;;;;32.03;17.27;;;;;;;;;;5119471;28;20038;-74
2021/03/25 00:18:31;;;;;;;33.90;17.58;;;;;;;;;;5119841;28;20711;-74
2021/03/25 00:20:57;;;;;;;29.63;15.85;;;;;;;;;;5118837;28;20028;-74
2021/03/25 00:23:23;;;;;;;30.15;15.57;;;;;;;;;;5119278;28;20050;-74
2021/03/25 00:25:48;;;;;;;29.88;15.48;;;;;;;;;;5100840;28;20023;-74
2021/03/25 00:28:16;;;;;;;31.83;15.30;;;;;;;;;;5119303;28;20489;-74
2021/03/25 00:30:43;;;;;;;28.42;15.50;;;;;;;;;;5120043;28;20035;-74
2021/03/25 00:33:11;;;;;;;25.90;14.02;;;;;;;;;;5119750;28;20035;-74
2021/03/25 00:35:38;;;;;;;31.67;17.95;;;;;;;;;;5101516;28;20591;-74
2021/03/25 00:38:04;;;;;;;29.13;15.93;;;;;;;;;;5118910;28;20039;-74
2021/03/25 00:40:30;;;;;;;31.05;16.73;;;;;;;;;;5119128;28;20119;-74
2021/03/25 00:42:56;;;;;;;28.38;15.38;;;;;;;;;;5118210;28;20074;-74
2021/03/25 00:45:32;;;;;;;27.85;14.98;;;;;;;;;;5118901;28;20450;-74
2021/03/25 00:47:57;;;;;;;28.05;14.57;;;;;;;;;;5095651;28;20050;-74
2021/03/25 00:50:36;;;;;;;28.85;14.65;;;;;;;;;;5078016;28;20036;-73
2021/03/25 00:53:03;;;;;;;34.33;17.10;;;;;;;;;;5095915;28;20062;-74
2021/03/25 00:55:28;;;;;;;39.17;19.40;;;;;;;;;;5077345;28;20089;-74
2021/03/25 00:57:54;;;;;;;29.10;16.75;;;;;;;;;;5078477;28;20123;-74
2021/03/25 01:00:24;;;;;;;28.60;15.38;;;;;;;;;;5095738;28;20043;-74
2021/03/25 01:02:51;;;;;;;27.42;13.93;;;;;;;;;;5077959;28;20503;-74
2021/03/25 01:05:17;;;;;;;27.40;14.18;;;;;;;;;;5095891;28;20043;-73
2021/03/25 01:07:43;;;;;;;27.52;14.63;;;;;;;;;;5095730;28;20466;-74
2021/03/25 01:10:19;;;;;;;25.30;13.27;;;;;;;;;;5096433;28;20047;-74
2021/03/25 01:12:44;;;;;;;26.13;13.40;;;;;;;;;;5096439;28;20043;-74
2021/03/25 01:15:10;;;;;;;29.80;14.02;;;;;;;;;;5096533;28;20032;-74
2021/03/25 01:17:47;;;;;;;24.80;14.65;;;;;;;;;;5091537;28;20598;-73
2021/03/25 01:20:14;;;;;;;;;;;;;;;;;;5082737;28;20173;-74
2021/03/25 01:22:40;;;;;;;31.58;15.73;;;;;;;;;;5099444;28;19911;-74
2021/03/25 01:25:06;;;;;;;28.98;16.38;;;;;;;;;;5117177;28;20473;-74
2021/03/25 01:27:31;;;;;;;34.72;18.10;;;;;;;;;;5115652;28;20027;-74
2021/03/25 01:29:59;;;;;;;34.85;17.13;;;;;;;;;;5116596;28;20108;-73
2021/03/25 01:32:24;;;;;;;28.17;14.63;;;;;;;;;;5098616;28;20031;-74
2021/03/25 01:34:50;;;;;;;24.67;13.82;;;;;;;;;;5098400;28;20032;-74
2021/03/25 01:37:16;;;;;;;30.25;15.98;;;;;;;;;;5114806;28;20110;-74
2021/03/25 01:39:55;;;;;;;25.95;14.40;;;;;;;;;;5097457;28;20413;-74
2021/03/25 01:42:27;;;;;;;28.52;15.32;;;;;;;;;;5097364;28;20035;-73
2021/03/25 01:44:54;;;;;;;27.55;14.88;;;;;;;;;;5097566;28;20077;-74
2021/03/25 01:47:20;;;;;;;31.95;16.20;;;;;;;;;;5093010;28;20107;-73
2021/03/25 01:49:46;;;;;;;31.40;15.35;;;;;;;;;;5095365;28;20111;-74
2021/03/25 01:52:39;;;;;;;37.08;16.38;;;;;;;;;;5095190;28;20378;-74
2021/03/25 01:55:28;;;;;;;30.88;15.77;;;;;;;;;;5082217;28;20060;-74
2021/03/25 01:58:27;;;;;;;35.25;16.13;;;;;;;;;;5076205;28;20028;-74
2021/03/25 02:01:04;;;;;;;34.90;16.85;;;;;;;;;;5093288;28;20043;-74
2021/03/25 02:03:35;;;;;;;;;;;;;;;;;;5110173;28;20392;-73
2021/03/25 02:06:31;;;;;;;36.35;18.42;;;;;;;;;;5096765;28;19911;-74
2021/03/25 02:09:16;;;;;;;31.52;15.85;;;;;;;;;;5096636;28;20108;-74
2021/03/25 02:12:17;;;;;;;28.77;15.07;;;;;;;;;;5114510;28;20032;-73
2021/03/25 02:15:12;;;;;;;33.60;16.40;;;;;;;;;;5096795;28;20054;-74
2021/03/25 02:17:53;;;;;;;34.17;17.90;;;;;;;;;;5096291;28;20043;-74
2021/03/25 02:21:11;;;;;;;32.25;16.40;;;;;;;;;;5092630;28;20474;-74
2021/03/25 02:24:11;;;;;;;32.25;16.70;;;;;;;;;;5076558;28;20035;-74
2021/03/25 02:26:49;;;;;;;27.95;15.95;;;;;;;;;;5076343;28;20038;-74
2021/03/25 02:29:38;;;;;;;31.40;16.02;;;;;;;;;;5094963;28;20032;-74
2021/03/25 02:32:08;;;;;;;29.55;15.50;;;;;;;;;;5094734;28;20028;-74
2021/03/25 02:34:39;;;;;;;36.80;18.35;;;;;;;;;;5076683;28;20058;-73
2021/03/25 02:37:11;;;;;;;36.13;17.73;;;;;;;;;;5093368;28;20389;-74
2021/03/25 02:39:49;;;;;;;32.72;15.63;;;;;;;;;;5086114;28;20024;-74
2021/03/25 02:42:57;;;;;;;26.50;13.70;;;;;;;;;;5114957;28;20519;-73
2021/03/25 02:45:30;;;;;;;29.20;15.10;;;;;;;;;;5092169;28;20040;-73
2021/03/25 02:48:05;;;;;;;29.63;15.05;;;;;;;;;;5096523;28;20122;-73
2021/03/25 02:50:45;;;;;;;27.77;15.43;;;;;;;;;;5096618;28;20048;-74
2021/03/25 02:53:34;;;;;;;26.80;14.65;;;;;;;;;;5115790;28;20035;-74
2021/03/25 02:56:08;;;;;;;30.10;13.48;;;;;;;;;;5114815;28;20036;-73
2021/03/25 02:58:38;;;;;;;27.50;15.18;;;;;;;;;;5114928;28;20033;-74
2021/03/25 03:01:09;;;;;;;37.10;17.98;;;;;;;;;;5115935;28;20095;-74
2021/03/25 03:03:39;;;;;;;33.78;16.02;;;;;;;;;;5097558;28;20024;-74
2021/03/25 03:06:10;;;;;;;30.40;16.50;;;;;;;;;;5114803;28;20024;-73
2021/03/25 03:08:46;;;;;;;35.17;17.67;;;;;;;;;;5113762;28;20085;-74
2021/03/25 03:11:46;;;;;;;33.63;17.15;;;;;;;;;;5114319;28;20080;-73
2021/03/25 03:14:36;;;;;;;32.83;18.13;;;;;;;;;;5081877;28;20566;-73
2021/03/25 03:17:07;;;;;;;33.92;17.95;;;;;;;;;;5076607;28;20070;-73
2021/03/25 03:19:49;;;;;;;33.33;17.67;;;;;;;;;;5077415;28;20031;-73
2021/03/25 03:22:15;;;;;;;34.40;17.67;;;;;;;;;;5060230;28;20031;-73
2021/03/25 03:24:47;;;;;;;33.42;15.63;;;;;;;;;;5094844;28;20430;-74
2021/03/25 03:27:34;;;;;;;30.33;15.73;;;;;;;;;;5091299;28;20039;-74
2021/03/25 03:30:04;;;;;;;31.52;16.38;;;;;;;;;;5091621;28;20042;-74
2021/03/25 03:32:45;;;;;;;31.60;17.40;;;;;;;;;;5080681;28;20035;-74
2021/03/25 03:35:17;;;;;;;31.55;16.95;;;;;;;;;;5080309;28;20036;-74
2021/03/25 03:37:48;;;;;;;29.27;16.25;;;;;;;;;;5080892;28;20038;-74
2021/03/25 03:40:32;;;;;;;27.73;15.25;;;;;;;;;;5081053;28;20028;-74
2021/03/25 03:43:04;;;;;;;30.02;16.38;;;;;;;;;;5075946;28;20430;-74
2021/03/25 03:45:42;;;;;;;25.20;14.90;;;;;;;;;;5060400;28;20059;-73
2021/03/25 03:48:25;;;;;;;37.58;14.30;;;;;;;;;;5060693;28;20536;-73
2021/03/25 03:50:53;;;;;;;30.02;15.30;;;;;;;;;;5060609;28;20025;-74
2021/03/25 03:53:20;;;;;;;31.50;17.40;;;;;;;;;;5061274;28;20423;-74
2021/03/25 03:55:46;;;;;;;43.42;16.77;;;;;;;;;;5044440;28;20040;-74
2021/03/25 03:58:18;;;;;;;40.10;18.80;;;;;;;;;;5061023;28;20111;-74
2021/03/25 04:01:22;;;;;;;38.03;20.08;;;;;;;;;;5061053;28;20073;-74
2021/03/25 04:03:58;;;;;;;41.70;17.98;;;;;;;;;;5044720;28;20047;-73
2021/03/25 04:06:45;;;;;;;48.67;22.38;;;;;;;;;;5044659;28;20116;-74
2021/03/25 04:09:22;;;;;;;40.03;20.25;;;;;;;;;;5043415;28;20117;-74
2021/03/25 04:12:12;;;;;;;38.85;19.92;;;;;;;;;;5096847;28;20177;-74
2021/03/25 04:14:46;;;;;;;37.28;17.98;;;;;;;;;;5079031;28;20040;-75
2021/03/25 04:17:31;;;;;;;33.58;17.58;;;;;;;;;;5097614;28;20105;-74
2021/03/25 04:20:09;;;;;;;32.53;15.88;;;;;;;;;;5098153;28;20062;-74
2021/03/25 04:22:57;;;;;;;36.72;17.67;;;;;;;;;;5097785;28;20069;-74
2021/03/25 04:25:28;;;;;;;29.20;15.35;;;;;;;;;;5097531;28;20109;-74
2021/03/25 04:28:00;;;;;;;30.63;15.50;;;;;;;;;;5097723;28;20050;-74
2021/03/25 04:30:39;;;;;;;31.70;14.63;;;;;;;;;;5096065;28;20039;-75
2021/03/25 04:33:05;;;;;;;32.65;15.00;;;;;;;;;;5096953;28;20044;-75
2021/03/25 04:35:31;;;;;;;36.22;15.85;;;;;;;;;;5096542;28;20032;-75
2021/03/25 04:37:58;;;;;;;34.05;16.33;;;;;;;;;;5078700;28;20122;-75
2021/03/25 04:40:34;;;;;;;39.00;18.75;;;;;;;;;;5095168;28;20032;-74
2021/03/25 04:42:59;;;;;;;33.95;17.20;;;;;;;;;;5096611;28;20067;-74
2021/03/25 04:45:30;;;;;;;39.35;19.92;;;;;;;;;;5079137;28;20074;-75
2021/03/25 04:47:59;;;;;;;35.35;16.88;;;;;;;;;;5097137;28;20494;-75
2021/03/25 04:50:34;;;;;;;30.27;16.25;;;;;;;;;;5097042;28;20031;-74
2021/03/25 04:53:21;;;;;;;36.13;16.75;;;;;;;;;;5097086;28;20046;-74
2021/03/25 04:55:47;;;;;;;42.17;17.67;;;;;;;;;;5096811;28;20028;-74
2021/03/25 04:58:20;;;;;;;36.72;17.90;;;;;;;;;;5079061;28;20035;-74
2021/03/25 05:00:46;;;;;;;33.70;17.02;;;;;;;;;;5096623;28;20032;-74
2021/03/25 05:03:18;;;;;;;36.55;17.25;;;;;;;;;;5096855;28;20040;-74
2021/03/25 05:05:44;;;;;;;38.20;18.83;;;;;;;;;;5078900;28;20031;-74
2021/03/25 05:08:17;;;;;;;39.05;18.88;;;;;;;;;;5097051;28;20375;-74
2021/03/25 05:10:50;;;;;;;31.23;16.20;;;;;;;;;;5096501;28;20382;-74
2021/03/25 05:13:35;;;;;;;31.58;16.77;;;;;;;;;;5096691;28;20073;-75
2021/03/25 05:16:25;;;;;;;31.85;16.75;;;;;;;;;;5078573;28;20486;-74
2021/03/25 05:18:57;;;;;;;40.10;17.90;;;;;;;;;;5079002;28;20074;-74
2021/03/25 05:21:35;;;;;;;34.45;16.20;;;;;;;;;;5097162;28;20409;-74
2021/03/25 05:24:18;;;;;;;35.63;18.00;;;;;;;;;;5096885;28;20055;-74
2021/03/25 05:26:49;;;;;;;39.03;18.73;;;;;;;;;;5094501;28;20390;-74
2021/03/25 05:29:17;;;;;;;39.35;18.30;;;;;;;;;;5076921;28;20153;-75
2021/03/25 05:31:45;;;;;;;42.50;19.58;;;;;;;;;;5077152;28;20047;-74
2021/03/25 05:34:12;;;;;;;36.78;17.92;;;;;;;;;;5095028;28;20115;-75
2021/03/25 05:36:37;;;;;;;34.50;18.60;;;;;;;;;;5095497;28;20469;-74
2021/03/25 05:39:04;;;;;;;38.33;18.60;;;;;;;;;;5095502;28;20155;-75
2021/03/25 05:41:54;;;;;;;37.80;17.88;;;;;;;;;;5095544;28;20380;-75
2021/03/25 05:44:34;;;;;;;36.40;17.13;;;;;;;;;;5073302;28;20029;-74
2021/03/25 05:47:32;;;;;;;34.17;17.42;;;;;;;;;;5057265;28;20032;-74
2021/03/25 05:50:20;;;;;;;42.10;19.35;;;;;;;;;;5072400;28;20086;-74
2021/03/25 05:53:03;;;;;;;41.70;19.80;;;;;;;;;;5057461;28;20127;-75
2021/03/25 05:56:00;;;;;;;35.33;18.13;;;;;;;;;;5057866;28;20037;-74
2021/03/25 05:58:36;;;;;;;37.47;19.48;;;;;;;;;;5074920;28;20055;-74
2021/03/25 06:01:37;;;;;;;35.75;18.17;;;;;;;;;;5075234;28;20082;-74
2021/03/25 06:04:20;;;;;;;32.13;16.73;;;;;;;;;;5074125;28;20036;-75
2021/03/25 06:06:56;;;;;;;37.55;18.38;;;;;;;;;;5056088;28;20116;-75
2021/03/25 06:09:40;;;;;;;37.90;17.47;;;;;;;;;;5061615;28;20039;-73
2021/03/25 06:12:40;;;;;;;33.58;18.35;;;;;;;;;;5093946;28;20364;-75
2021/03/25 06:15:28;;;;;;;38.00;17.70;;;;;;;;;;5093762;28;20545;-74
2021/03/25 06:18:10;;;;;;;36.72;17.17;;;;;;;;;;5093953;28;20048;-75
2021/03/25 06:20:56;;;;;;;36.40;18.35;;;;;;;;;;5094449;28;20455;-74
2021/03/25 06:23:55;;;;;;;28.55;16.20;;;;;;;;;;5093827;28;20035;-74
2021/03/25 06:26:53;;;;;;;34.50;17.45;;;;;;;;;;5093485;28;20032;-74
2021/03/25 06:29:29;;;;;;;39.28;18.10;;;;;;;;;;5048756;28;20666;-76
2021/03/25 06:32:20;;;;;;;35.45;18.02;;;;;;;;;;5093941;28;20119;-75
2021/03/25 06:34:54;;;;;;;40.13;18.45;;;;;;;;;;5093625;28;20034;-75
2021/03/25 06:37:23;;;;;;;33.17;16.73;;;;;;;;;;5090204;28;20054;-75
2021/03/25 06:40:00;;;;;;;38.78;18.38;;;;;;;;;;5089575;28;20036;-75
2021/03/25 06:42:38;;;;;;;36.70;19.27;;;;;;;;;;5094114;28;20038;-75
2021/03/25 06:45:07;;;;;;;41.55;21.00;;;;;;;;;;5075285;28;20028;-75
2021/03/25 06:48:23;;;;;;;46.05;22.02;;;;;;;;;;5092363;28;20132;-75
2021/03/25 06:50:51;;;;;;;42.22;20.95;;;;;;;;;;5048740;28;20115;-75
2021/03/25 06:53:22;;;;;;;36.85;19.60;;;;;;;;;;5094827;28;20044;-75
2021/03/25 06:55:51;;;;;;;36.97;18.40;;;;;;;;;;5094035;28;20054;-75
2021/03/25 06:58:25;;;;;;;35.35;18.90;;;;;;;;;;5093009;28;20542;-73
2021/03/25 07:00:57;;;;;;;34.92;19.67;;;;;;;;;;5093396;28;20371;-73
2021/03/25 07:03:23;;;;;;;36.72;18.85;;;;;;;;;;5078785;28;20047;-72
2021/03/25 07:05:49;;;;;;;37.95;19.40;;;;;;;;;;5079358;28;20032;-74
2021/03/25 07:08:14;;;;;;;34.85;19.83;;;;;;;;;;5097616;28;20040;-73
2021/03/25 07:10:41;;;;;;;35.85;19.95;;;;;;;;;;5097255;28;20028;-73
2021/03/25 07:13:08;;;;;;;33.85;19.98;;;;;;;;;;5078910;28;20032;-73
2021/03/25 07:15:37;;;;;;;34.70;19.50;;;;;;;;;;5097007;28;20036;-73
2021/03/25 07:18:20;;;;;;;35.65;19.00;;;;;;;;;;5095586;28;20032;-73
2021/03/25 07:20:46;;;;;;;34.13;19.27;;;;;;;;;;5079125;28;20470;-73
2021/03/25 07:23:14;;;;;;;32.80;19.63;;;;;;;;;;5079243;28;20020;-73
2021/03/25 07:25:42;;;;;;;40.10;20.83;;;;;;;;;;5096373;28;20024;-73
2021/03/25 07:28:15;;;;;;;40.63;22.58;;;;;;;;;;5097025;28;20527;-73
2021/03/25 07:30:44;;;;;;;43.08;23.15;;;;;;;;;;5097143;28;20035;-73
2021/03/25 07:33:17;;;;;;;36.95;21.92;;;;;;;;;;5097016;28;20093;-73
2021/03/25 07:36:05;;;;;;;41.75;22.42;;;;;;;;;;5097058;28;20119;-73
2021/03/25 07:38:34;;;;;;;38.90;20.65;;;;;;;;;;5096221;28;20462;-73
2021/03/25 07:41:13;;;;;;;38.10;21.17;;;;;;;;;;5096555;28;20059;-73
2021/03/25 07:44:06;;;;;;;44.72;22.30;;;;;;;;;;5096888;28;20040;-73
2021/03/25 07:46:44;;;;;;;42.50;22.75;;;;;;;;;;5061570;28;20058;-76
2021/03/25 07:49:09;;;;;;;39.63;22.15;;;;;;;;;;5076930;28;20131;-75
2021/03/25 07:51:49;;;;;;;36.97;20.13;;;;;;;;;;5076423;28;20143;-73
2021/03/25 07:54:32;;;;;;;37.28;21.70;;;;;;;;;;5076146;28;20056;-74
2021/03/25 07:57:03;;;;;;;41.45;21.70;;;;;;;;;;5075609;28;20469;-74
2021/03/25 07:59:40;;;;;;;38.15;21.75;;;;;;;;;;5076285;28;20043;-75
2021/03/25 08:02:38;;;;;;;39.78;22.70;;;;;;;;;;5090341;28;20055;-77
2021/03/25 08:05:12;;;;;;;33.88;19.58;;;;;;;;;;5096385;28;20043;-75
2021/03/25 08:07:40;;;;;;;38.40;21.33;;;;;;;;;;5078058;28;20044;-76
2021/03/25 08:10:06;;;;;;;41.83;21.05;;;;;;;;;;5096280;28;20040;-75
2021/03/25 08:12:34;;;;;;;39.08;22.10;;;;;;;;;;5095771;28;20434;-75
2021/03/25 08:15:25;;;;;;;37.70;22.58;;;;;;;;;;5094104;28;20040;-76
2021/03/25 08:18:13;;;;;;;36.22;21.65;;;;;;;;;;5066003;28;20105;-75
2021/03/25 08:21:23;;;;;;;39.33;21.05;;;;;;;;;;5056285;28;20045;-74
2021/03/25 08:24:06;;;;;;;40.83;22.38;;;;;;;;;;5012232;28;20417;-75
2021/03/25 08:26:45;;;;;;;37.95;23.70;;;;;;;;;;5057616;28;20512;-75
2021/03/25 08:29:18;;;;;;;37.30;22.25;;;;;;;;;;5089802;28;20107;-74
2021/03/25 08:32:06;;;;;;;38.45;22.33;;;;;;;;;;5095067;28;20043;-74
2021/03/25 08:34:50;;;;;;;42.60;23.08;;;;;;;;;;5096184;28;20453;-75
2021/03/25 08:37:29;;;;;;;40.67;22.35;;;;;;;;;;5095735;28;20583;-75
2021/03/25 08:40:01;;;;;;;43.53;21.95;;;;;;;;;;5095537;28;20024;-75
2021/03/25 08:42:35;;;;;;;41.45;23.23;;;;;;;;;;5077159;28;20461;-76
2021/03/25 08:45:05;;;;;;;41.58;23.10;;;;;;;;;;5073902;28;20059;-74
2021/03/25 08:47:54;;;;;;;42.95;24.65;;;;;;;;;;5075186;28;20040;-75
2021/03/25 08:50:28;;;;;;;42.63;24.27;;;;;;;;;;5057192;28;20098;-74
2021/03/25 08:52:56;;;;;;;41.83;24.23;;;;;;;;;;5086597;28;20039;-74
2021/03/25 08:55:26;;;;;;;42.47;24.23;;;;;;;;;;5095369;28;20042;-74
2021/03/25 08:58:20;;;;;;;42.70;24.23;;;;;;;;;;5094437;28;20127;-75
2021/03/25 09:00:53;;;;;;;38.97;24.25;;;;;;;;;;5077087;28;20050;-73
2021/03/25 09:03:29;;;;;;;47.42;25.55;;;;;;;;;;5094680;28;20047;-73
2021/03/25 09:05:57;;;;;;;;;;;;;;;;;;5095372;28;20043;-73
2021/03/25 09:08:22;;;;;;;;;;;;;;;;;;5095701;28;19919;-74
2021/03/25 09:10:51;;;;;;;;;;;;;;;;;;5094425;28;19912;-73
2021/03/25 09:13:20;;;;;;;;;;;;;;;;;;5095237;28;20022;-73
2021/03/25 09:15:46;;;;;;;;;;;;;;;;;;5095315;28;19920;-74
2021/03/25 09:18:20;;;;;;;;;;;;;;;;;;5077157;28;19912;-74
2021/03/25 09:20:49;;;;;;;;;;;;;;;;;;5095524;28;19915;-73
2021/03/25 09:23:30;;;;;;;;;;;;;;;;;;5077260;28;20412;-74
2021/03/25 09:26:00;;;;;;;;;;;;;;;;;;5093995;28;19946;-74
2021/03/25 09:28:45;;;;;;;;;;;;;;;;;;5095488;28;19987;-74
2021/03/25 09:31:12;;;;;;;;;;;;;;;;;;5094624;28;19912;-74
2021/03/25 09:33:51;;;;;;;;;;;;;;;;;;5095251;28;19916;-74
2021/03/25 09:36:17;;;;;;;;;;;;;;;;;;5076619;28;20149;-74
2021/03/25 09:38:43;;;;;;;;;;;;;;;;;;5094527;28;19969;-74
2021/03/25 09:41:15;;;;;;;;;;;;;;;;;;5095310;28;20358;-75
2021/03/25 09:43:42;;;;;;;;;;;;;;;;;;5076344;28;19959;-76
2021/03/25 09:46:40;;;;;;;;;;;;;;;;;;5074476;28;19916;-74
2021/03/25 09:49:14;;;;;;;;;;;;;;;;;;5030014;28;19919;-74
2021/03/25 09:51:40;;;;;;;;;;;;;;;;;;5074161;28;20008;-74
2021/03/25 09:54:17;;;;;;;;;;;;;;;;;;5083199;28;20384;-74
2021/03/25 09:56:42;;;;;;;;;;;;;;;;;;5094587;28;20343;-74
2021/03/25 09:59:27;;;;;;;;;;;;;;;;;;5076486;28;19960;-73
2021/03/25 10:01:55;;;;;;;;;;;;;;;;;;5094496;28;20003;-73
2021/03/25 10:04:32;;;;;;;;;;;;;;;;;;5076384;28;20004;-74
2021/03/25 10:07:03;;;;;;;;;;;;;;;;;;5094498;28;19916;-73
2021/03/25 10:09:47;;;;;;;;;;;;;;;;;;5076223;28;19935;-73
2021/03/25 10:12:32;;;;;;;;;;;;;;;;;;5093312;28;19912;-74
2021/03/25 10:14:57;;;;;;;;;;;;;;;;;;5094068;28;19927;-74
2021/03/25 10:17:42;;;;;;;;;;;;;;;;;;5093974;28;19916;-72
2021/03/25 10:20:10;;;;;;;;;;;;;;;;;;5094288;28;20006;-72
2021/03/25 10:22:35;;;;;;;;;;;;;;;;;;5093626;28;20386;-74
2021/03/25 10:25:00;;;;;;;;;;;;;;;;;;5093980;28;20034;-73
2021/03/25 10:27:34;;;;;;;;;;;;;;;;;;5094036;28;19912;-73
2021/03/25 10:30:18;;;;;;;;;;;;;;;;;;5094261;28;19934;-73
2021/03/25 10:32:43;;;;;;;;;;;;;;;;;;5094174;28;20381;-74
2021/03/25 10:35:16;;;;;;;;;;;;;;;;;;5093957;28;19916;-73
2021/03/25 10:37:46;;;;;;;;;;;;;;;;;;5093179;28;19919;-74
2021/03/25 10:40:18;;;;;;;;;;;;;;;;;;5093023;28;19912;-73
2021/03/25 10:42:44;;;;;;;;;;;;;;;;;;5093991;28;19912;-73
2021/03/25 10:45:34;;;;;;;;;;;;;;;;;;5094000;28;19916;-74
2021/03/25 10:48:02;;;;;;;;;;;;;;;;;;5087887;28;20260;-74
2021/03/25 10:50:31;;;;;;;;;;;;;;;;;;5093937;28;19966;-74
2021/03/25 10:52:59;;;;;;;;;;;;;;;;;;5093500;28;20254;-74
2021/03/25 10:55:27;;;;;;;;;;;;;;;;;;5093620;28;20316;-74
2021/03/25 10:57:52;;;;;;;;;;;;;;;;;;5092993;28;19919;-73
2021/03/25 11:00:18;;;;;;;;;;;;;;;;;;5093905;28;20270;-74
2021/03/25 11:02:44;;;;;;;;;;;;;;;;;;5093348;28;20435;-72
2021/03/25 11:05:20;;;;;;;;;;;;;;;;;;5093629;28;20270;-74
2021/03/25 11:07:47;;;;;;;;;;;;;;;;;;5093641;28;20301;-75
2021/03/25 11:10:32;;;;;;;;;;;;;;;;;;5093950;28;19919;-74
2021/03/25 11:13:25;;;;;;;;;;;;;;;;;;5093516;28;20304;-74
2021/03/25 11:16:02;;;;;;;;;;;;;;;;;;5091628;28;19978;-73
2021/03/25 11:18:37;;;;;;;;;;;;;;;;;;5093229;28;20365;-74
2021/03/25 11:21:03;;;;;;;;;;;;;;;;;;5094605;28;19912;-80
2021/03/25 11:23:29;;;;;;;;;;;;;;;;;;5063624;28;19919;-80
2021/03/25 11:25:56;;;;;;;;;;;;;;;;;;5075792;28;19995;-79
2021/03/25 11:28:21;;;;;;;;;;;;;;;;;;5075527;28;19909;-78
2021/03/25 11:30:48;;;;;;;;;;;;;;;;;;5087725;28;20019;-79
2021/03/25 11:33:20;;;;;;;;;;;;;;;;;;5095871;28;19911;-78
2021/03/25 11:35:46;;;;;;;;;;;;;;;;;;5095838;28;19924;-80
2021/03/25 11:38:23;;;;;;;;;;;;;;;;;;5096455;28;20006;-78
2021/03/25 11:40:49;;;;;;;;;;;;;;;;;;5094296;28;19918;-76
2021/03/25 11:43:16;;;;;;;;;;;;;;;;;;5092481;28;19912;-76
2021/03/25 11:45:44;;;;;;;;;;;;;;;;;;5093258;28;19935;-76
2021/03/25 15:28:43;;;;;;;48.55;24.58;;;;;;;;;;5111336;27;20326;-77
2021/03/25 15:31:09;;;;;;;40.58;22.73;;;;;;;;;;5111177;28;20097;-77
2021/03/25 15:33:36;;;;;;;38.25;22.05;;;;;;;;;;5111078;28;20035;-75
2021/03/25 15:36:05;;;;;;;40.08;22.80;;;;;;;;;;5110603;28;20633;-73
2021/03/25 15:38:31;;;;;;;45.63;26.45;;;;;;;;;;5111099;28;20127;-72
2021/03/25 15:41:01;;;;;;;42.72;23.52;;;;;;;;;;5109534;28;20489;-72
2021/03/25 15:43:27;;;;;;;53.72;26.52;;;;;;;;;;5111062;28;20466;-72
2021/03/25 15:45:54;;;;;;;35.00;21.73;;;;;;;;;;5110983;28;20078;-73
2021/03/25 15:48:21;;;;;;;43.22;25.27;;;;;;;;;;5109328;28;20028;-72
2021/03/25 15:50:48;;;;;;;39.13;22.77;;;;;;;;;;5109164;28;20036;-73
2021/03/25 15:53:16;;;;;;;42.95;24.92;;;;;;;;;;5110773;28;20024;-73
2021/03/25 15:55:42;;;;;;;38.58;24.15;;;;;;;;;;5110777;28;20043;-73
2021/03/25 15:58:09;;;;;;;33.70;20.70;;;;;;;;;;5110790;28;20378;-73
2021/03/25 16:00:34;;;;;;;38.03;22.70;;;;;;;;;;5110628;28;20053;-72
2021/03/25 16:03:00;;;;;;;41.63;21.23;;;;;;;;;;5110162;28;20036;-73
2021/03/25 16:05:26;;;;;;;34.42;20.60;;;;;;;;;;5110259;28;20405;-72
2021/03/25 16:07:53;;;;;;;36.28;22.73;;;;;;;;;;5110328;28;20050;-73
2021/03/25 16:10:19;;;;;;;42.42;23.60;;;;;;;;;;5110403;28;20038;-73
2021/03/25 16:12:44;;;;;;;42.33;24.13;;;;;;;;;;5110351;28;20481;-72
2021/03/25 16:15:16;;;;;;;41.20;23.13;;;;;;;;;;5109382;28;20028;-72
2021/03/25 16:17:41;;;;;;;42.72;26.70;;;;;;;;;;5108769;28;20035;-73
2021/03/25 16:20:08;;;;;;;43.30;26.65;;;;;;;;;;5109577;28;20101;-72
2021/03/25 16:22:33;;;;;;;45.38;25.90;;;;;;;;;;5108740;28;20118;-72
2021/03/25 16:24:59;;;;;;;45.88;28.23;;;;;;;;;;5108745;28;20127;-72
2021/03/25 16:27:24;;;;;;;53.53;30.58;;;;;;;;;;5106592;28;20098;-74
2021/03/25 16:29:49;;;;;;;42.75;24.92;;;;;;;;;;5109331;28;20024;-72
2021/03/25 16:32:15;;;;;;;43.03;24.95;;;;;;;;;;5100628;28;20473;-72
2021/03/25 16:34:40;;;;;;;41.47;24.25;;;;;;;;;;5089087;28;20036;-73
2021/03/25 16:37:06;;;;;;;44.03;24.92;;;;;;;;;;5091235;28;20046;-73
2021/03/25 16:39:32;;;;;;;47.45;27.73;;;;;;;;;;5099618;27;20036;-73
2021/03/25 16:41:57;;;;;;;42.50;26.10;;;;;;;;;;5095254;28;20061;-72
2021/03/25 16:44:28;;;;;;;46.70;27.20;;;;;;;;;;5078095;28;20489;-74
2021/03/25 16:46:55;;;;;;;53.70;31.30;;;;;;;;;;5095553;28;20035;-73
2021/03/25 16:49:21;;;;;;;54.10;30.88;;;;;;;;;;5095659;28;20505;-73
2021/03/25 16:51:47;;;;;;;54.03;31.08;;;;;;;;;;5094705;28;20062;-74
2021/03/25 16:54:12;;;;;;;58.13;33.50;;;;;;;;;;5094931;28;20039;-73
2021/03/25 16:56:37;;;;;;;46.78;29.42;;;;;;;;;;5094618;28;20087;-74
2021/03/25 16:59:03;;;;;;;53.33;30.77;;;;;;;;;;5094786;28;20043;-74
2021/03/25 17:01:28;;;;;;;49.80;29.98;;;;;;;;;;5095918;28;20032;-74
2021/03/25 17:03:54;;;;;;;58.17;31.95;;;;;;;;;;5095054;28;20036;-73
2021/03/25 17:06:20;;;;;;;49.72;29.67;;;;;;;;;;5095607;28;20027;-73
2021/03/25 17:08:46;;;;;;;50.25;29.17;;;;;;;;;;5095284;28;20032;-73
2021/03/25 17:11:14;;;;;;;51.17;29.98;;;;;;;;;;5094281;28;20042;-73
2021/03/25 17:13:40;;;;;;;51.00;30.02;;;;;;;;;;5095474;28;20066;-77
2021/03/25 17:16:06;;;;;;;53.72;31.58;;;;;;;;;;5095095;28;20042;-72
2021/03/25 17:18:32;;;;;;;54.70;32.40;;;;;;;;;;5095495;28;20032;-72
2021/03/25 17:20:59;;;;;;;50.05;29.17;;;;;;;;;;5095151;28;20039;-74
2021/03/25 17:23:28;;;;;;;46.60;28.88;;;;;;;;;;5094420;28;20039;-74
2021/03/25 17:25:55;;;;;;;52.90;29.50;;;;;;;;;;5094814;28;20093;-74
2021/03/25 17:28:24;;;;;;;48.17;30.52;;;;;;;;;;5094840;28;20486;-72
2021/03/25 17:30:51;;;;;;;56.65;30.02;;;;;;;;;;5093408;28;20463;-73
2021/03/25 17:33:18;;;;;;;52.80;31.08;;;;;;;;;;5093948;28;20039;-74
2021/03/25 17:35:44;;;;;;;55.45;34.08;;;;;;;;;;5093985;28;20103;-75
2021/03/25 17:38:11;;;;;;;48.50;28.27;;;;;;;;;;5095016;28;20426;-75
2021/03/25 17:40:38;;;;;;;45.17;27.85;;;;;;;;;;5095073;28;20381;-75
2021/03/25 17:43:04;;;;;;;51.53;29.23;;;;;;;;;;5094978;28;20032;-74
2021/03/25 17:45:34;;;;;;;52.45;28.95;;;;;;;;;;5092621;28;20055;-75
2021/03/25 17:48:00;;;;;;;49.50;28.98;;;;;;;;;;5094916;28;20043;-74
2021/03/25 17:50:27;;;;;;;46.97;28.33;;;;;;;;;;5094013;28;20024;-74
2021/03/25 17:52:53;;;;;;;54.13;31.85;;;;;;;;;;5093758;28;20085;-73
2021/03/25 17:55:21;;;;;;;53.15;31.05;;;;;;;;;;5094732;28;20488;-73
2021/03/25 17:57:47;;;;;;;49.35;30.42;;;;;;;;;;5093257;28;20032;-74
2021/03/25 18:00:19;;;;;;;56.22;30.75;;;;;;;;;;5093850;28;20024;-74
2021/03/25 18:02:46;;;;;;;51.65;30.67;;;;;;;;;;5094802;28;20036;-76
2021/03/25 18:05:17;;;;;;;54.72;31.88;;;;;;;;;;5093915;28;20069;-76
2021/03/25 18:07:42;;;;;;;54.53;31.13;;;;;;;;;;5094308;28;20081;-76
2021/03/25 18:10:08;;;;;;;50.25;30.95;;;;;;;;;;5094267;28;20040;-76
2021/03/25 18:12:33;;;;;;;51.30;30.08;;;;;;;;;;5094401;28;20036;-76
2021/03/25 18:14:59;;;;;;;52.55;30.98;;;;;;;;;;5093107;28;20405;-77
2021/03/25 18:17:24;;;;;;;54.72;30.75;;;;;;;;;;5092900;28;20067;-76
2021/03/25 18:19:49;;;;;;;55.60;33.05;;;;;;;;;;5093545;28;20036;-76
2021/03/25 18:22:15;;;;;;;48.97;30.17;;;;;;;;;;5094138;28;20118;-76
2021/03/25 18:24:40;;;;;;;57.00;32.15;;;;;;;;;;5094251;28;20050;-76
2021/03/25 18:27:06;;;;;;;48.05;28.58;;;;;;;;;;5092697;28;20379;-75
2021/03/25 18:29:31;;;;;;;56.65;31.63;;;;;;;;;;5093817;28;20347;-74
2021/03/25 18:31:57;;;;;;;50.25;30.25;;;;;;;;;;5094085;28;20042;-74
2021/03/25 18:34:23;;;;;;;52.92;29.80;;;;;;;;;;5093041;28;20477;-74
2021/03/25 18:36:49;;;;;;;50.55;30.58;;;;;;;;;;5093349;28;20104;-74
2021/03/25 18:39:15;;;;;;;46.85;28.88;;;;;;;;;;5092689;28;20114;-74
2021/03/25 18:41:40;;;;;;;50.05;28.55;;;;;;;;;;5092749;28;20115;-74
2021/03/25 18:44:06;;;;;;;44.42;28.80;;;;;;;;;;5093907;28;20040;-74
2021/03/25 18:46:31;;;;;;;49.35;29.38;;;;;;;;;;5092188;28;20032;-74
2021/03/25 18:48:57;;;;;;;47.20;28.65;;;;;;;;;;5090950;28;20484;-74
2021/03/25 18:51:30;;;;;;;49.28;29.40;;;;;;;;;;5092585;28;20043;-74
2021/03/25 18:53:58;;;;;;;49.92;31.30;;;;;;;;;;5092344;28;20075;-74
2021/03/25 18:56:25;;;;;;;47.90;29.95;;;;;;;;;;5083902;28;20536;-74